Featherville, Idaho
Current Conditions -  °F | °C
As of 4:58 AM on Monday 24 Nov 2014 (Local Time) from KMUO Reporting Station
Clear Clear  
Wind Chill: 25°   Ceiling: Unl
Heat Index: 33°   Visibility: 10mi
Dew Point: 33°   Wind: 12mph
Humidity: 99%   Direction: 300°WNW
Pressure: 30.31"   Gusts: NA
Location:  43.2609°N, 115.781°W
Report Text: KMUO 241158Z AUTO 30010KT 10SM CLR 01/01 A3031 RMK AO2 SLP281 60000 T00080007 10032 20002 52018
Loading
Personal Weather Stations






























Interactive Weather Map New forecast layout! Learn more

10-Day Weather Forecast

Advertisements
Track Severe Weather on mobile